Time;durP1;ratioP1;P1;durP2;ratioP2;P2;SDS_P1;SDS_P2;PMS_P1;PMS_P2;Temp;Humidity;BMP_temperature;BMP_pressure;BME280_temperature;BME280_humidity;BME280_pressure;Samples;Min_cycle;Max_cycle;Signal;HPM_P1;HPM_P2
2023/08/12 00:00:48;;;;;;;;;;;;;;;;;;2193692;59;1428;-18
2023/08/12 00:03:18;;;;;;;;;;;;;;;;;;2192117;67;2746;-19
2023/08/12 00:05:48;;;;;;;;;;;;;;;;;;2192474;59;2628;-19
2023/08/12 00:08:19;;;;;;;;;;;;;;;;;;2189155;59;2192;-19
2023/08/12 00:10:49;;;;;;;;;;;;;;;;;;2192879;67;2261;-18
2023/08/12 00:13:20;;;;;;;;;;;;;;;;;;2193326;59;2547;-19
2023/08/12 00:15:51;;;;;;;;;;;;;;;;;;2193093;67;2411;-19
2023/08/12 00:18:22;;;;;;;;;;;;;;;;;;2193701;59;2529;-19
2023/08/12 00:20:53;;;;;;;;;;;;;;;;;;2193905;67;1742;-20
2023/08/12 00:23:23;;;;;;;;;;;;;;;;;;2193796;67;2032;-19
2023/08/12 00:25:57;;;;;;;;;;;;;;;;;;2193085;67;1789;-19
2023/08/12 00:28:27;;;;;;;;;;;;;;;;;;2192722;67;1957;-18
2023/08/12 00:30:57;;;;;;;;;;;;;;;;;;2193952;59;1781;-19
2023/08/12 00:33:28;;;;;;;;;;;;;;;;;;2193886;59;1852;-19
2023/08/12 00:35:58;;;;;;;;;;;;;;;;;;2193874;67;1771;-19
2023/08/12 00:38:28;;;;;;;;;;;;;;;;;;2193457;59;2721;-19
2023/08/12 00:40:59;;;;;;;;;;;;;;;;;;2193234;67;2030;-19
2023/08/12 00:43:29;;;;;;;;;;;;;;;;;;2194039;59;2070;-20
2023/08/12 00:45:59;;;;;;;;;;;;;;;;;;2193569;59;1735;-19
2023/08/12 00:48:29;;;;;;;;;;;;;;;;;;2193942;67;2556;-19
2023/08/12 00:51:00;;;;;;;;;;;;;;;;;;2194382;59;2250;-20
2023/08/12 00:53:30;;;;;;;;;;;;;;;;;;2193244;59;2291;-19
2023/08/12 00:56:00;;;;;;;;;;;;;;;;;;2193749;59;1951;-19
2023/08/12 00:58:31;;;;;;;;;;;;;;;;;;2194144;67;3032;-19
2023/08/12 01:01:01;;;;;;;;;;;;;;;;;;2193220;59;2006;-20
2023/08/12 01:03:31;;;;;;;;;;;;;;;;;;2193998;59;1933;-20
2023/08/12 01:06:03;;;;;;;;;;;;;;;;;;2192885;59;2284;-19
2023/08/12 01:08:34;;;;;;;;;;;;;;;;;;2193704;60;1819;-19
2023/08/12 01:11:20;;;;;;;;;;;;;;;;;;2194192;67;2269;-19
2023/08/12 01:14:00;;;;;;;;;;;;;;;;;;2193123;59;1771;-19
2023/08/12 01:16:35;;;;;;;;;;;;;;;;;;2193327;67;2052;-18
2023/08/12 01:19:06;;;;;;;;;;;;;;;;;;2194085;67;1982;-19
2023/08/12 01:21:40;;;;;;;;;;;;;;;;;;2194168;67;1676;-20
2023/08/12 01:24:11;;;;;;;;;;;;;;;;;;2189852;67;1990;-20
2023/08/12 01:26:41;;;;;;;;;;;;;;;;;;2193323;59;2467;-19
2023/08/12 01:29:12;;;;;;;;;;;;;;;;;;2192846;67;2156;-19
2023/08/12 01:31:52;;;;;;;;;;;;;;;;;;2194333;67;1875;-19
2023/08/12 01:34:48;;;;;;;;;;;;;;;;;;2192890;59;2166;-19
2023/08/12 01:37:24;;;;;;;;;;;;;;;;;;2194014;67;1913;-19
2023/08/12 01:39:55;;;;;;;;;;;;;;;;;;2196076;67;1929;-20
2023/08/12 01:42:25;;;;;;;;;;;;;;;;;;2193739;67;2461;-19
2023/08/12 01:44:56;;;;;;;;;;;;;;;;;;2193638;59;2388;-20
2023/08/12 01:47:26;;;;;;;;;;;;;;;;;;2194285;67;1131;-19
2023/08/12 01:49:57;;;;;;;;;;;;;;;;;;2193623;59;1957;-18
2023/08/12 01:52:27;;;;;;;;;;;;;;;;;;2194255;59;1380;-20
2023/08/12 01:54:57;;;;;;;;;;;;;;;;;;2192054;59;2030;-20
2023/08/12 01:57:27;;;;;;;;;;;;;;;;;;2194239;59;1274;-20
2023/08/12 01:59:58;;;;;;;;;;;;;;;;;;2192935;59;1603;-19
2023/08/12 02:02:28;;;;;;;;;;;;;;;;;;2193325;67;1991;-19
2023/08/12 02:04:59;;;;;;;;;;;;;;;;;;2194049;59;1663;-19
2023/08/12 02:07:30;;;;;;;;;;;;;;;;;;2193686;59;2649;-19
2023/08/12 02:10:00;;;;;;;;;;;;;;;;;;2192743;67;3420;-18
2023/08/12 02:12:30;;;;;;;;;;;;;;;;;;2194486;59;1864;-20
2023/08/12 02:15:01;;;;;;;;;;;;;;;;;;2192780;67;1881;-18
2023/08/12 02:17:31;;;;;;;;;;;;;;;;;;2196999;59;1668;-18
2023/08/12 02:20:03;;;;;;;;;;;;;;;;;;2193004;67;1987;-19
2023/08/12 02:22:33;;;;;;;;;;;;;;;;;;2193540;59;2044;-19
2023/08/12 02:25:04;;;;;;;;;;;;;;;;;;2194050;67;2387;-19
2023/08/12 02:27:34;;;;;;;;;;;;;;;;;;2193235;59;1860;-19
2023/08/12 02:30:05;;;;;;;;;;;;;;;;;;2193833;59;1792;-19
2023/08/12 02:32:35;;;;;;;;;;;;;;;;;;2194038;59;1781;-20
2023/08/12 02:35:05;;;;;;;;;;;;;;;;;;2194033;67;1989;-19
2023/08/12 02:37:36;;;;;;;;;;;;;;;;;;2189823;67;2096;-19
2023/08/12 02:40:06;;;;;;;;;;;;;;;;;;2193713;59;2380;-19
2023/08/12 02:42:37;;;;;;;;;;;;;;;;;;2193668;67;1981;-19
2023/08/12 02:45:07;;;;;;;;;;;;;;;;;;2194112;59;1883;-19
2023/08/12 02:47:37;;;;;;;;;;;;;;;;;;2193680;67;2436;-20
2023/08/12 02:50:08;;;;;;;;;;;;;;;;;;2193502;59;2588;-18
2023/08/12 02:52:38;;;;;;;;;;;;;;;;;;2194125;59;1870;-18
2023/08/12 02:55:08;;;;;;;;;;;;;;;;;;2193833;59;2114;-19
2023/08/12 02:57:38;;;;;;;;;;;;;;;;;;2194706;59;2608;-20
2023/08/12 03:00:09;;;;;;;;;;;;;;;;;;2193582;59;1894;-18
2023/08/12 03:02:42;;;;;;;;;;;;;;;;;;2193458;60;1898;-19
2023/08/12 03:05:12;;;;;;;;;;;;;;;;;;2192133;59;1774;-19
2023/08/12 03:07:42;;;;;;;;;;;;;;;;;;2192151;67;2709;-19
2023/08/12 03:10:13;;;;;;;;;;;;;;;;;;2193241;67;2223;-19
2023/08/12 03:12:43;;;;;;;;;;;;;;;;;;2193978;59;1733;-19
2023/08/12 03:15:14;;;;;;;;;;;;;;;;;;2193393;59;1865;-21
2023/08/12 03:17:44;;;;;;;;;;;;;;;;;;2192564;59;2148;-20
2023/08/12 03:20:14;;;;;;;;;;;;;;;;;;2192818;67;1953;-20
2023/08/12 03:22:44;;;;;;;;;;;;;;;;;;2193634;59;1976;-20
2023/08/12 03:25:15;;;;;;;;;;;;;;;;;;2193031;67;1752;-19
2023/08/12 03:27:45;;;;;;;;;;;;;;;;;;2190925;59;1860;-20
2023/08/12 03:30:15;;;;;;;;;;;;;;;;;;2192757;59;1834;-19
2023/08/12 03:32:46;;;;;;;;;;;;;;;;;;2193060;59;1929;-20
2023/08/12 03:35:16;;;;;;;;;;;;;;;;;;2193145;67;2434;-21
2023/08/12 03:37:46;;;;;;;;;;;;;;;;;;2193249;67;1792;-20
2023/08/12 03:40:16;;;;;;;;;;;;;;;;;;2193104;67;1862;-19
2023/08/12 03:42:47;;;;;;;;;;;;;;;;;;2193239;67;1925;-19
2023/08/12 03:45:17;;;;;;;;;;;;;;;;;;2192693;59;2551;-19
2023/08/12 03:47:47;;;;;;;;;;;;;;;;;;2193843;59;2096;-19
2023/08/12 03:50:17;;;;;;;;;;;;;;;;;;2193366;59;1807;-21
2023/08/12 03:52:48;;;;;;;;;;;;;;;;;;2193362;59;1392;-19
2023/08/12 03:55:18;;;;;;;;;;;;;;;;;;2192850;59;1435;-20
2023/08/12 03:57:49;;;;;;;;;;;;;;;;;;2194109;59;1624;-20
2023/08/12 04:00:19;;;;;;;;;;;;;;;;;;2192079;59;1561;-20
2023/08/12 04:02:49;;;;;;;;;;;;;;;;;;2193613;67;1942;-20
2023/08/12 04:05:19;;;;;;;;;;;;;;;;;;2193216;59;2161;-21
2023/08/12 04:07:50;;;;;;;;;;;;;;;;;;2191926;62;3029;-21
2023/08/12 04:10:20;;;;;;;;;;;;;;;;;;2192190;67;2912;-20
2023/08/12 04:12:50;;;;;;;;;;;;;;;;;;2194981;59;1560;-18
2023/08/12 04:15:20;;;;;;;;;;;;;;;;;;2193070;59;2397;-20
2023/08/12 04:17:51;;;;;;;;;;;;;;;;;;2193297;67;1895;-19
2023/08/12 04:20:22;;;;;;;;;;;;;;;;;;2193295;67;2224;-19
2023/08/12 04:22:53;;;;;;;;;;;;;;;;;;2192560;59;2433;-20
2023/08/12 04:25:23;;;;;;;;;;;;;;;;;;2192624;67;1760;-19
2023/08/12 04:27:54;;;;;;;;;;;;;;;;;;2192794;59;2359;-20
2023/08/12 04:30:24;;;;;;;;;;;;;;;;;;2193519;59;1897;-19
2023/08/12 04:32:54;;;;;;;;;;;;;;;;;;2192200;59;2388;-19
2023/08/12 04:35:25;;;;;;;;;;;;;;;;;;2193148;67;1794;-19
2023/08/12 04:37:55;;;;;;;;;;;;;;;;;;2192590;67;1598;-20
2023/08/12 04:40:25;;;;;;;;;;;;;;;;;;2193457;59;1880;-19
2023/08/12 04:42:56;;;;;;;;;;;;;;;;;;2192845;67;2056;-19
2023/08/12 04:45:27;;;;;;;;;;;;;;;;;;2193039;59;2384;-21
2023/08/12 04:47:57;;;;;;;;;;;;;;;;;;2193222;59;2142;-21
2023/08/12 04:50:31;;;;;;;;;;;;;;;;;;2193303;59;1855;-19
2023/08/12 04:53:01;;;;;;;;;;;;;;;;;;2191902;59;2342;-20
2023/08/12 04:55:31;;;;;;;;;;;;;;;;;;2192820;59;1645;-20
2023/08/12 04:58:02;;;;;;;;;;;;;;;;;;2193539;67;1644;-20
2023/08/12 05:00:33;;;;;;;;;;;;;;;;;;2192022;59;1795;-20
2023/08/12 05:03:04;;;;;;;;;;;;;;;;;;2193248;67;2299;-20
2023/08/12 05:05:34;;;;;;;;;;;;;;;;;;2193425;59;2102;-19
2023/08/12 05:08:04;;;;;;;;;;;;;;;;;;2193820;59;2565;-20
2023/08/12 05:10:34;;;;;;;;;;;;;;;;;;2194091;59;2372;-19
2023/08/12 05:13:05;;;;;;;;;;;;;;;;;;2194549;59;2030;-19
2023/08/12 05:15:36;;;;;;;;;;;;;;;;;;2193415;59;1831;-19
2023/08/12 05:18:07;;;;;;;;;;;;;;;;;;2193728;67;1820;-20
2023/08/12 05:20:37;;;;;;;;;;;;;;;;;;2194027;67;2226;-20
2023/08/12 05:23:08;;;;;;;;;;;;;;;;;;2193906;59;2410;-20
2023/08/12 05:25:38;;;;;;;;;;;;;;;;;;2193569;59;1784;-20
2023/08/12 05:28:09;;;;;;;;;;;;;;;;;;2193916;59;1805;-19
2023/08/12 05:30:39;;;;;;;;;;;;;;;;;;2193355;67;1938;-19
2023/08/12 05:33:10;;;;;;;;;;;;;;;;;;2193584;67;1778;-20
2023/08/12 05:35:40;;;;;;;;;;;;;;;;;;2193905;67;1769;-19
2023/08/12 05:38:10;;;;;;;;;;;;;;;;;;2193121;67;2941;-19
2023/08/12 05:40:41;;;;;;;;;;;;;;;;;;2193696;67;2007;-18
2023/08/12 05:43:11;;;;;;;;;;;;;;;;;;2193595;67;2542;-19
2023/08/12 05:45:41;;;;;;;;;;;;;;;;;;2193995;59;1783;-21
2023/08/12 05:48:11;;;;;;;;;;;;;;;;;;2193785;67;1811;-19
2023/08/12 05:50:41;;;;;;;;;;;;;;;;;;2193353;59;1882;-19
2023/08/12 05:53:12;;;;;;;;;;;;;;;;;;2194636;59;1480;-20
2023/08/12 05:55:42;;;;;;;;;;;;;;;;;;2193777;59;1799;-20
2023/08/12 05:58:12;;;;;;;;;;;;;;;;;;2194814;67;1612;-19
2023/08/12 06:00:46;;;;;;;;;;;;;;;;;;2193240;59;2154;-20
2023/08/12 06:03:16;;;;;;;;;;;;;;;;;;2193451;67;2029;-20
2023/08/12 06:05:47;;;;;;;;;;;;;;;;;;2192891;59;1752;-21
2023/08/12 06:08:17;;;;;;;;;;;;;;;;;;2193729;67;1305;-21
2023/08/12 06:10:48;;;;;;;;;;;;;;;;;;2193453;67;3008;-20
2023/08/12 06:13:18;;;;;;;;;;;;;;;;;;2191740;59;2201;-20
2023/08/12 06:15:48;;;;;;;;;;;;;;;;;;2193058;67;2659;-19
2023/08/12 06:18:19;;;;;;;;;;;;;;;;;;2192521;67;2278;-19
2023/08/12 06:20:49;;;;;;;;;;;;;;;;;;2193257;67;2109;-20
2023/08/12 06:23:19;;;;;;;;;;;;;;;;;;2193501;67;2232;-19
2023/08/12 06:25:50;;;;;;;;;;;;;;;;;;2192877;59;3379;-18
2023/08/12 06:28:20;;;;;;;;;;;;;;;;;;2193444;67;2477;-18
2023/08/12 06:30:51;;;;;;;;;;;;;;;;;;2190573;59;2258;-19
2023/08/12 06:33:21;;;;;;;;;;;;;;;;;;2193340;59;2174;-19
2023/08/12 06:35:51;;;;;;;;;;;;;;;;;;2193962;67;1750;-19
2023/08/12 06:38:22;;;;;;;;;;;;;;;;;;2194206;64;1782;-19
2023/08/12 06:40:52;;;;;;;;;;;;;;;;;;2193625;67;2403;-19
2023/08/12 06:43:22;;;;;;;;;;;;;;;;;;2193105;67;2605;-19
2023/08/12 06:45:53;;;;;;;;;;;;;;;;;;2197016;54;4796;-24
2023/08/12 06:48:23;;;;;;;;;;;;;;;;;;2202520;66;1922;-24
2023/08/12 06:50:56;;;;;;;;;;;;;;;;;;2199529;59;1836;-24
2023/08/12 06:53:26;;;;;;;;;;;;;;;;;;2199386;59;1644;-24
2023/08/12 06:55:56;;;;;;;;;;;;;;;;;;2199776;59;1620;-24
2023/08/12 06:58:27;;;;;;;;;;;;;;;;;;2198437;66;1269;-24
2023/08/12 07:00:58;;;;;;;;;;;;;;;;;;2199451;59;1830;-24
2023/08/12 07:03:29;;;;;;;;;;;;;;;;;;2200609;59;2050;-24
2023/08/12 07:05:59;;;;;;;;;;;;;;;;;;2198635;66;1203;-24
2023/08/12 07:08:29;;;;;;;;;;;;;;;;;;2200725;66;1520;-23
2023/08/12 07:10:59;;;;;;;;;;;;;;;;;;2198445;59;2640;-24
2023/08/12 07:13:30;;;;;;;;;;;;;;;;;;2199409;59;2560;-24
2023/08/12 07:16:00;;;;;;;;;;;;;;;;;;2198660;59;2229;-24
2023/08/12 07:18:31;;;;;;;;;;;;;;;;;;2199578;67;1741;-24
2023/08/12 07:21:01;;;;;;;;;;;;;;;;;;2201726;66;1787;-24
2023/08/12 07:23:31;;;;;;;;;;;;;;;;;;2198230;67;2494;-24
2023/08/12 07:26:01;;;;;;;;;;;;;;;;;;2198578;59;1944;-24
2023/08/12 07:28:32;;;;;;;;;;;;;;;;;;2200094;59;1745;-24
2023/08/12 07:31:02;;;;;;;;;;;;;;;;;;2198921;67;1804;-23
2023/08/12 07:33:32;;;;;;;;;;;;;;;;;;2199965;59;1747;-24
2023/08/12 07:36:03;;;;;;;;;;;;;;;;;;2198888;66;1799;-24
2023/08/12 07:38:34;;;;;;;;;;;;;;;;;;2199581;66;2278;-24
2023/08/12 07:41:04;;;;;;;;;;;;;;;;;;2199483;66;2236;-23
2023/08/12 07:43:35;;;;;;;;;;;;;;;;;;2199217;66;2433;-24
2023/08/12 07:46:05;;;;;;;;;;;;;;;;;;2197849;59;2399;-24
2023/08/12 07:48:35;;;;;;;;;;;;;;;;;;2199087;67;2529;-24
2023/08/12 07:51:05;;;;;;;;;;;;;;;;;;2198726;59;2267;-25
2023/08/12 07:53:36;;;;;;;;;;;;;;;;;;2199563;58;1804;-25
2023/08/12 07:56:06;;;;;;;;;;;;;;;;;;2198409;59;1879;-24
2023/08/12 07:58:36;;;;;;;;;;;;;;;;;;2199205;59;1863;-23
2023/08/12 08:01:08;;;;;;;;;;;;;;;;;;2199638;59;2450;-25
2023/08/12 08:03:39;;;;;;;;;;;;;;;;;;2199676;58;1939;-24
2023/08/12 08:06:09;;;;;;;;;;;;;;;;;;2197782;66;2048;-23
2023/08/12 08:08:40;;;;;;;;;;;;;;;;;;2199906;66;1797;-24
2023/08/12 08:11:13;;;;;;;;;;;;;;;;;;2198163;66;2028;-24
2023/08/12 08:13:43;;;;;;;;;;;;;;;;;;2198628;59;2498;-24
2023/08/12 08:16:13;;;;;;;;;;;;;;;;;;2201701;62;3559;-23
2023/08/12 08:18:44;;;;;;;;;;;;;;;;;;2199348;59;1526;-23
2023/08/12 08:21:14;;;;;;;;;;;;;;;;;;2204007;59;2023;-24
2023/08/12 08:23:45;;;;;;;;;;;;;;;;;;2200268;66;2415;-25
2023/08/12 08:26:15;;;;;;;;;;;;;;;;;;2199550;59;1779;-24
2023/08/12 08:28:45;;;;;;;;;;;;;;;;;;2198633;67;2368;-24
2023/08/12 08:31:16;;;;;;;;;;;;;;;;;;2199928;59;3214;-23
2023/08/12 08:33:46;;;;;;;;;;;;;;;;;;2199206;59;1953;-24
2023/08/12 08:36:18;;;;;;;;;;;;;;;;;;2199137;59;1863;-23
2023/08/12 08:38:48;;;;;;;;;;;;;;;;;;2199644;66;1937;-24
2023/08/12 08:41:19;;;;;;;;;;;;;;;;;;2200652;59;2083;-24
2023/08/12 08:43:49;;;;;;;;;;;;;;;;;;2200972;66;1976;-23
2023/08/12 08:46:20;;;;;;;;;;;;;;;;;;2199881;59;2029;-23
2023/08/12 08:48:51;;;;;;;;;;;;;;;;;;2199641;59;2604;-24
2023/08/12 08:51:21;;;;;;;;;;;;;;;;;;2199458;59;1844;-24
2023/08/12 08:53:54;;;;;;;;;;;;;;;;;;2200086;58;2446;-24
2023/08/12 08:56:24;;;;;;;;;;;;;;;;;;2202471;59;1775;-23
2023/08/12 08:58:55;;;;;;;;;;;;;;;;;;2199176;66;1925;-23
2023/08/12 09:01:27;;;;;;;;;;;;;;;;;;2200440;59;1839;-24
2023/08/12 09:03:57;;;;;;;;;;;;;;;;;;2199141;58;1932;-24
2023/08/12 09:06:28;;;;;;;;;;;;;;;;;;2203646;66;2123;-23
2023/08/12 09:08:59;;;;;;;;;;;;;;;;;;2199369;66;1768;-23
2023/08/12 09:11:30;;;;;;;;;;;;;;;;;;2199741;59;2312;-24
2023/08/12 09:14:00;;;;;;;;;;;;;;;;;;2199919;59;3236;-24
2023/08/12 09:16:30;;;;;;;;;;;;;;;;;;2199478;66;2563;-24
2023/08/12 09:19:01;;;;;;;;;;;;;;;;;;2202629;66;1971;-24
2023/08/12 09:21:31;;;;;;;;;;;;;;;;;;2199847;66;1703;-25
2023/08/12 09:24:04;;;;;;;;;;;;;;;;;;2199837;59;1936;-25
2023/08/12 09:26:35;;;;;;;;;;;;;;;;;;2201877;59;1758;-24
2023/08/12 09:29:05;;;;;;;;;;;;;;;;;;2198946;66;2309;-24
2023/08/12 09:31:35;;;;;;;;;;;;;;;;;;2199631;59;1633;-23
2023/08/12 09:34:08;;;;;;;;;;;;;;;;;;2199212;59;1807;-23
2023/08/12 09:36:40;;;;;;;;;;;;;;;;;;2199071;66;1769;-24
2023/08/12 09:39:10;;;;;;;;;;;;;;;;;;2198795;66;2465;-24
2023/08/12 09:41:40;;;;;;;;;;;;;;;;;;2200274;67;2016;-23
2023/08/12 09:44:11;;;;;;;;;;;;;;;;;;2201015;66;2618;-23
2023/08/12 09:46:41;;;;;;;;;;;;;;;;;;2199907;59;1794;-24
2023/08/12 09:49:11;;;;;;;;;;;;;;;;;;2198336;59;1943;-23
2023/08/12 09:51:43;;;;;;;;;;;;;;;;;;2200388;59;2458;-24
2023/08/12 09:54:14;;;;;;;;;;;;;;;;;;2199486;58;2086;-23
2023/08/12 09:56:47;;;;;;;;;;;;;;;;;;2200532;59;1660;-24
2023/08/12 09:59:22;;;;;;;;;;;;;;;;;;2198790;66;1894;-24
2023/08/12 10:01:53;;;;;;;;;;;;;;;;;;2199594;59;2272;-24
2023/08/12 10:04:32;;;;;;;;;;;;;;;;;;2199486;58;1946;-23
2023/08/12 10:07:04;;;;;;;;;;;;;;;;;;2201251;60;1880;-23
2023/08/12 10:09:35;;;;;;;;;;;;;;;;;;2199811;66;1804;-23
2023/08/12 10:12:06;;;;;;;;;;;;;;;;;;2199437;59;1755;-23
2023/08/12 10:14:38;;;;;;;;;;;;;;;;;;2197967;59;3488;-23
2023/08/12 10:17:09;;;;;;;;;;;;;;;;;;2198368;66;2257;-23
2023/08/12 10:19:43;;;;;;;;;;;;;;;;;;2198650;59;2155;-23
2023/08/12 10:22:14;;;;;;;;;;;;;;;;;;2199001;66;1798;-23
2023/08/12 10:24:45;;;;;;;;;;;;;;;;;;2199652;66;1946;-23
2023/08/12 10:27:16;;;;;;;;;;;;;;;;;;2199143;59;1742;-23
2023/08/12 10:29:46;;;;;;;;;;;;;;;;;;2199007;66;1358;-23
2023/08/12 10:32:17;;;;;;;;;;;;;;;;;;2199548;59;1538;-23
2023/08/12 10:34:53;;;;;;;;;;;;;;;;;;2200682;66;2181;-23
2023/08/12 10:37:24;;;;;;;;;;;;;;;;;;2199964;66;1669;-22
2023/08/12 10:39:54;;;;;;;;;;;;;;;;;;2199203;67;1318;-23
2023/08/12 10:42:44;;;;;;;;;;;;;;;;;;2203403;66;2271;-23
2023/08/12 10:45:15;;;;;;;;;;;;;;;;;;2198394;59;1728;-23
2023/08/12 10:48:08;;;;;;;;;;;;;;;;;;2200055;58;1938;-24
2023/08/12 10:50:43;;;;;;;;;;;;;;;;;;2200621;59;1574;-24
2023/08/12 10:53:32;;;;;;;;;;;;;;;;;;2198721;59;1650;-23
2023/08/12 10:56:03;;;;;;;;;;;;;;;;;;2199323;59;1448;-24
2023/08/12 10:58:54;;;;;;;;;;;;;;;;;;2199803;66;1344;-24
2023/08/12 11:01:24;;;;;;;;;;;;;;;;;;2199778;59;1921;-24
2023/08/12 11:03:57;;;;;;;;;;;;;;;;;;2200828;66;1938;-24
2023/08/12 11:06:28;;;;;;;;;;;;;;;;;;2200944;66;1793;-24
2023/08/12 11:08:59;;;;;;;;;;;;;;;;;;2198950;66;1789;-24
2023/08/12 11:11:29;;;;;;;;;;;;;;;;;;2200242;59;1415;-24
2023/08/12 11:13:59;;;;;;;;;;;;;;;;;;2199865;66;1240;-24
2023/08/12 11:16:36;;;;;;;;;;;;;;;;;;2197498;59;2956;-24
2023/08/12 11:19:07;;;;;;;;;;;;;;;;;;2199003;59;2041;-24
2023/08/12 11:21:38;;;;;;;;;;;;;;;;;;2198707;66;1940;-24
2023/08/12 11:24:08;;;;;;;;;;;;;;;;;;2198090;66;1941;-24
2023/08/12 11:26:39;;;;;;;;;;;;;;;;;;2199660;59;1902;-23
2023/08/12 11:29:11;;;;;;;;;;;;;;;;;;2199327;59;3138;-24
2023/08/12 11:31:41;;;;;;;;;;;;;;;;;;2199796;59;1875;-24
2023/08/12 11:34:11;;;;;;;;;;;;;;;;;;2198668;59;1984;-24
2023/08/12 11:36:42;;;;;;;;;;;;;;;;;;2199984;66;2432;-24
2023/08/12 11:39:12;;;;;;;;;;;;;;;;;;2198381;66;2948;-24
2023/08/12 11:41:42;;;;;;;;;;;;;;;;;;2199161;66;1842;-24
2023/08/12 11:44:16;;;;;;;;;;;;;;;;;;2198939;66;2539;-23
2023/08/12 11:46:47;;;;;;;;;;;;;;;;;;2199114;59;1356;-23
2023/08/12 11:49:17;;;;;;;;;;;;;;;;;;2198277;59;1607;-24
2023/08/12 11:51:48;;;;;;;;;;;;;;;;;;2199402;59;1644;-24
2023/08/12 11:54:20;;;;;;;;;;;;;;;;;;2199444;59;1738;-23
2023/08/12 11:56:50;;;;;;;;;;;;;;;;;;2199203;59;2076;-24
2023/08/12 11:59:24;;;;;;;;;;;;;;;;;;2199422;66;1731;-24
2023/08/12 12:01:54;;;;;;;;;;;;;;;;;;2199475;59;1739;-24
2023/08/12 12:04:25;;;;;;;;;;;;;;;;;;2199619;58;1995;-24
2023/08/12 12:06:55;;;;;;;;;;;;;;;;;;2198975;66;1556;-24
2023/08/12 12:09:26;;;;;;;;;;;;;;;;;;2198422;67;1516;-24
2023/08/12 12:11:56;;;;;;;;;;;;;;;;;;2197428;59;1847;-24
2023/08/12 12:14:26;;;;;;;;;;;;;;;;;;2199138;67;1383;-23
2023/08/12 12:16:57;;;;;;;;;;;;;;;;;;2199057;60;3358;-24
2023/08/12 12:19:27;;;;;;;;;;;;;;;;;;2199174;59;2196;-23
2023/08/12 12:22:01;;;;;;;;;;;;;;;;;;2200252;60;2523;-23
2023/08/12 12:24:43;;;;;;;;;;;;;;;;;;2199004;66;2161;-23
2023/08/12 12:27:14;;;;;;;;;;;;;;;;;;2199411;59;2009;-24
2023/08/12 12:29:44;;;;;;;;;;;;;;;;;;2199670;66;1288;-24
2023/08/12 12:32:14;;;;;;;;;;;;;;;;;;2200071;66;1451;-24
2023/08/12 12:34:45;;;;;;;;;;;;;;;;;;2199941;67;1956;-24
2023/08/12 12:37:15;;;;;;;;;;;;;;;;;;2199265;66;1672;-23
2023/08/12 12:39:45;;;;;;;;;;;;;;;;;;2199998;66;1648;-24
2023/08/12 12:42:15;;;;;;;;;;;;;;;;;;2199692;66;1273;-23
2023/08/12 12:44:46;;;;;;;;;;;;;;;;;;2199670;59;1940;-24
2023/08/12 12:47:16;;;;;;;;;;;;;;;;;;2199214;58;1619;-24
2023/08/12 12:49:46;;;;;;;;;;;;;;;;;;2199491;59;1634;-24
2023/08/12 12:52:16;;;;;;;;;;;;;;;;;;2200666;58;1609;-24
2023/08/12 12:54:47;;;;;;;;;;;;;;;;;;2199503;59;1537;-23
2023/08/12 12:57:17;;;;;;;;;;;;;;;;;;2199298;59;1369;-23
2023/08/12 12:59:48;;;;;;;;;;;;;;;;;;2199360;59;1277;-24
2023/08/12 13:02:18;;;;;;;;;;;;;;;;;;2199450;66;1849;-23
2023/08/12 13:04:49;;;;;;;;;;;;;;;;;;2198915;58;2115;-24
2023/08/12 13:07:19;;;;;;;;;;;;;;;;;;2200675;66;1750;-23
2023/08/12 13:09:50;;;;;;;;;;;;;;;;;;2198852;66;1472;-24
2023/08/12 13:12:20;;;;;;;;;;;;;;;;;;2199244;59;1614;-23
2023/08/12 13:14:50;;;;;;;;;;;;;;;;;;2199652;66;1731;-24
2023/08/12 13:17:21;;;;;;;;;;;;;;;;;;2198817;66;2199;-24
2023/08/12 13:19:51;;;;;;;;;;;;;;;;;;2198465;59;2585;-23
2023/08/12 13:22:21;;;;;;;;;;;;;;;;;;2198411;66;1974;-23
2023/08/12 13:24:51;;;;;;;;;;;;;;;;;;2199113;66;1987;-23
2023/08/12 13:27:23;;;;;;;;;;;;;;;;;;2199835;59;1961;-23
2023/08/12 13:29:53;;;;;;;;;;;;;;;;;;2203021;66;1916;-23
2023/08/12 13:32:23;;;;;;;;;;;;;;;;;;2201013;59;1865;-23
2023/08/12 13:34:54;;;;;;;;;;;;;;;;;;2200854;66;2540;-24
2023/08/12 13:37:24;;;;;;;;;;;;;;;;;;2199235;66;1684;-24
2023/08/12 13:39:54;;;;;;;;;;;;;;;;;;2200434;66;2071;-23
2023/08/12 13:42:24;;;;;;;;;;;;;;;;;;2200484;67;2107;-25
2023/08/12 13:44:56;;;;;;;;;;;;;;;;;;2199067;59;1944;-24
2023/08/12 13:47:26;;;;;;;;;;;;;;;;;;2199389;59;1750;-24
2023/08/12 13:49:56;;;;;;;;;;;;;;;;;;2198959;59;1630;-24
2023/08/12 13:52:26;;;;;;;;;;;;;;;;;;2200825;58;1934;-24
2023/08/12 13:54:57;;;;;;;;;;;;;;;;;;2198910;59;2812;-24
2023/08/12 13:57:27;;;;;;;;;;;;;;;;;;2198322;59;2282;-23
2023/08/12 13:59:57;;;;;;;;;;;;;;;;;;2200155;59;2439;-24
2023/08/12 14:02:28;;;;;;;;;;;;;;;;;;2198501;59;1918;-23
2023/08/12 14:04:58;;;;;;;;;;;;;;;;;;2199800;58;2095;-23
2023/08/12 14:07:29;;;;;;;;;;;;;;;;;;2199295;66;2403;-23
2023/08/12 14:09:59;;;;;;;;;;;;;;;;;;2199404;66;1268;-23
2023/08/12 14:12:29;;;;;;;;;;;;;;;;;;2199633;59;1777;-24
2023/08/12 14:15:00;;;;;;;;;;;;;;;;;;2200345;66;2081;-23
2023/08/12 14:17:30;;;;;;;;;;;;;;;;;;2198735;59;2535;-24
2023/08/12 14:20:00;;;;;;;;;;;;;;;;;;2198527;66;2176;-23
2023/08/12 14:22:31;;;;;;;;;;;;;;;;;;2199710;66;1620;-23
2023/08/12 14:25:04;;;;;;;;;;;;;;;;;;2199477;59;1939;-23
2023/08/12 14:27:35;;;;;;;;;;;;;;;;;;2200142;59;1770;-23
2023/08/12 14:30:05;;;;;;;;;;;;;;;;;;2199808;66;1785;-23
2023/08/12 14:32:36;;;;;;;;;;;;;;;;;;2199391;59;1946;-23
2023/08/12 14:35:06;;;;;;;;;;;;;;;;;;2199138;66;1977;-24
2023/08/12 14:37:36;;;;;;;;;;;;;;;;;;2198978;66;1857;-23
2023/08/12 14:40:07;;;;;;;;;;;;;;;;;;2199385;67;2747;-23
2023/08/12 14:42:37;;;;;;;;;;;;;;;;;;2199236;66;2382;-23
2023/08/12 14:45:08;;;;;;;;;;;;;;;;;;2199178;59;1767;-23
2023/08/12 14:47:38;;;;;;;;;;;;;;;;;;2199614;59;2578;-23
2023/08/12 14:50:08;;;;;;;;;;;;;;;;;;2199535;59;2037;-23
2023/08/12 14:52:39;;;;;;;;;;;;;;;;;;2200593;58;2189;-23
2023/08/12 14:55:14;;;;;;;;;;;;;;;;;;2216796;59;1588;-20
2023/08/12 14:57:45;;;;;;;;;;;;;;;;;;2216792;66;2001;-20
2023/08/12 15:00:15;;;;;;;;;;;;;;;;;;2217159;58;1826;-20
2023/08/12 15:02:45;;;;;;;;;;;;;;;;;;2212906;66;1949;-20
2023/08/12 15:05:16;;;;;;;;;;;;;;;;;;2216374;63;1891;-20
2023/08/12 15:07:47;;;;;;;;;;;;;;;;;;2216137;66;1824;-20
2023/08/12 15:10:17;;;;;;;;;;;;;;;;;;2216121;66;1995;-19
2023/08/12 15:12:47;;;;;;;;;;;;;;;;;;2216533;59;2595;-19
2023/08/12 15:15:17;;;;;;;;;;;;;;;;;;2213456;66;2882;-20
2023/08/12 15:17:47;;;;;;;;;;;;;;;;;;2216188;66;2077;-19
2023/08/12 15:20:18;;;;;;;;;;;;;;;;;;2215845;59;2255;-19
2023/08/12 15:22:48;;;;;;;;;;;;;;;;;;2216426;66;1465;-20
2023/08/12 15:25:19;;;;;;;;;;;;;;;;;;2216494;66;1959;-20
2023/08/12 15:27:49;;;;;;;;;;;;;;;;;;2216779;58;2257;-19
2023/08/12 15:30:20;;;;;;;;;;;;;;;;;;2216489;58;2578;-19
2023/08/12 15:32:50;;;;;;;;;;;;;;;;;;2216635;59;2756;-20
2023/08/12 15:35:20;;;;;;;;;;;;;;;;;;2216335;66;2334;-21
2023/08/12 15:37:51;;;;;;;;;;;;;;;;;;2217604;66;2000;-19
2023/08/12 15:40:22;;;;;;;;;;;;;;;;;;2215806;59;1745;-20
2023/08/12 15:42:52;;;;;;;;;;;;;;;;;;2211765;66;1993;-19
2023/08/12 15:45:23;;;;;;;;;;;;;;;;;;2216353;58;2397;-19
2023/08/12 15:47:54;;;;;;;;;;;;;;;;;;2216106;59;3107;-20
2023/08/12 15:50:24;;;;;;;;;;;;;;;;;;2216175;58;1826;-19
2023/08/12 15:52:54;;;;;;;;;;;;;;;;;;2217567;58;1929;-20
2023/08/12 15:55:25;;;;;;;;;;;;;;;;;;2218474;58;1758;-19
2023/08/12 15:57:55;;;;;;;;;;;;;;;;;;2216740;66;2595;-20
2023/08/12 16:00:25;;;;;;;;;;;;;;;;;;2218576;58;2400;-20
2023/08/12 16:02:56;;;;;;;;;;;;;;;;;;2216397;66;1807;-20
2023/08/12 16:05:26;;;;;;;;;;;;;;;;;;2217544;66;1956;-20
2023/08/12 16:07:57;;;;;;;;;;;;;;;;;;2215850;58;1900;-19
2023/08/12 16:10:27;;;;;;;;;;;;;;;;;;2214802;66;2564;-19
2023/08/12 16:12:57;;;;;;;;;;;;;;;;;;2211616;59;1988;-19
2023/08/12 16:15:27;;;;;;;;;;;;;;;;;;2210321;66;1776;-18
2023/08/12 16:17:58;;;;;;;;;;;;;;;;;;2211814;66;1674;-19
2023/08/12 16:20:28;;;;;;;;;;;;;;;;;;2213967;58;2218;-20
2023/08/12 16:22:59;;;;;;;;;;;;;;;;;;2212321;66;2247;-20
2023/08/12 16:25:30;;;;;;;;;;;;;;;;;;2215328;66;1945;-19
2023/08/12 16:28:00;;;;;;;;;;;;;;;;;;2211630;59;1859;-19
2023/08/12 16:30:31;;;;;;;;;;;;;;;;;;2214652;59;2405;-19
2023/08/12 16:33:03;;;;;;;;;;;;;;;;;;2213825;59;1933;-20
2023/08/12 16:35:34;;;;;;;;;;;;;;;;;;2215274;59;1657;-19
2023/08/12 16:38:04;;;;;;;;;;;;;;;;;;2212387;58;1854;-19
2023/08/12 16:40:34;;;;;;;;;;;;;;;;;;2214083;66;1871;-20
2023/08/12 16:43:05;;;;;;;;;;;;;;;;;;2214457;59;2358;-20
2023/08/12 16:45:35;;;;;;;;;;;;;;;;;;2210582;58;2576;-20
2023/08/12 16:48:05;;;;;;;;;;;;;;;;;;2211743;66;2028;-19
2023/08/12 16:50:36;;;;;;;;;;;;;;;;;;2214218;58;1889;-19
2023/08/12 16:53:06;;;;;;;;;;;;;;;;;;2214664;58;1931;-19
2023/08/12 16:55:36;;;;;;;;;;;;;;;;;;2213633;58;1821;-20
2023/08/12 16:58:06;;;;;;;;;;;;;;;;;;2214661;66;1788;-20
2023/08/12 17:00:37;;;;;;;;;;;;;;;;;;2208537;59;1977;-19
2023/08/12 17:03:07;;;;;;;;;;;;;;;;;;2214237;59;2524;-19
2023/08/12 17:05:37;;;;;;;;;;;;;;;;;;2214602;58;2090;-20
2023/08/12 17:08:08;;;;;;;;;;;;;;;;;;2214341;63;2237;-20
2023/08/12 17:10:38;;;;;;;;;;;;;;;;;;2215058;66;2387;-19
2023/08/12 17:13:09;;;;;;;;;;;;;;;;;;2210918;59;1983;-20
2023/08/12 17:15:40;;;;;;;;;;;;;;;;;;2211208;66;2539;-19
2023/08/12 17:18:10;;;;;;;;;;;;;;;;;;2213575;66;1721;-19
2023/08/12 17:20:41;;;;;;;;;;;;;;;;;;2213670;59;2539;-19
2023/08/12 17:23:11;;;;;;;;;;;;;;;;;;2214642;59;2426;-19
2023/08/12 17:25:41;;;;;;;;;;;;;;;;;;2215412;59;1877;-20
2023/08/12 17:28:12;;;;;;;;;;;;;;;;;;2213810;59;1893;-20